Time;durP1;ratioP1;P1;durP2;ratioP2;P2;SDS_P1;SDS_P2;PMS_P1;PMS_P2;Temp;Humidity;BMP_temperature;BMP_pressure;BME280_temperature;BME280_humidity;BME280_pressure;Samples;Min_cycle;Max_cycle;Signal;HPM_P1;HPM_P2
2022/06/01 00:00:44;;;;;;;5.65;4.22;;;;;;;19.22;41.60;100958.69;5062613;28;20044;-68
2022/06/01 00:03:11;;;;;;;5.95;4.57;;;;;;;19.20;41.60;100955.22;5064772;28;20045;-68
2022/06/01 00:05:38;;;;;;;5.35;4.40;;;;;;;19.18;41.08;100956.44;5064586;28;20071;-69
2022/06/01 00:08:05;;;;;;;4.80;3.88;;;;;;;19.16;41.04;100947.47;5063304;28;20044;-68
2022/06/01 00:10:32;;;;;;;5.70;4.47;;;;;;;19.12;41.16;100946.88;5052448;28;20675;-68
2022/06/01 00:12:59;;;;;;;5.75;4.53;;;;;;;19.09;41.42;100946.34;5065358;28;20044;-69
2022/06/01 00:15:26;;;;;;;6.80;4.82;;;;;;;19.06;41.35;100947.53;5057937;28;20128;-68
2022/06/01 00:17:53;;;;;;;6.03;4.55;;;;;;;19.02;41.49;100943.38;5056767;28;20075;-68
2022/06/01 00:20:19;;;;;;;5.57;4.55;;;;;;;19.00;41.57;100948.16;5065574;28;20044;-69
2022/06/01 00:22:46;;;;;;;5.38;4.45;;;;;;;18.97;41.14;100942.94;5064706;28;20135;-68
2022/06/01 00:25:14;;;;;;;6.07;5.03;;;;;;;18.96;41.48;100949.47;5066708;28;20135;-68
2022/06/01 00:27:41;;;;;;;5.25;4.20;;;;;;;18.93;41.66;100947.03;5064694;28;20489;-68
2022/06/01 00:30:12;;;;;;;6.28;4.55;;;;;;;18.92;41.53;100946.16;5043952;28;20094;-68
2022/06/01 00:32:39;;;;;;;5.40;4.45;;;;;;;18.88;41.54;100950.22;5061968;28;20075;-68
2022/06/01 00:35:08;;;;;;;6.82;4.50;;;;;;;18.88;41.97;100958.47;5058507;28;20132;-68
2022/06/01 00:37:35;;;;;;;6.45;4.38;;;;;;;18.84;41.38;100953.47;5059087;28;20120;-68
2022/06/01 00:40:05;;;;;;;5.80;4.43;;;;;;;18.83;41.84;100955.34;5069516;28;20479;-68
2022/06/01 00:42:33;;;;;;;6.07;4.18;;;;;;;18.81;41.73;100962.00;5068335;28;20127;-69
2022/06/01 00:45:00;;;;;;;6.07;4.35;;;;;;;18.79;41.91;100958.53;5064277;28;20762;-68
2022/06/01 00:47:28;;;;;;;4.35;3.90;;;;;;;18.79;41.95;100958.53;5062070;28;20493;-69
2022/06/01 00:49:57;;;;;;;6.50;4.45;;;;;;;18.75;41.97;100948.88;5070071;28;20051;-68
2022/06/01 00:52:35;;;;;;;6.13;4.15;;;;;;;18.75;41.71;100954.38;5062472;28;20055;-69
2022/06/01 00:55:26;;;;;;;8.60;3.95;;;;;;;18.72;42.62;100955.53;5065149;28;20136;-68
2022/06/01 00:58:00;;;;;;;5.30;3.97;;;;;;;18.72;42.34;100963.78;5069382;28;20072;-69
2022/06/01 01:00:32;;;;;;;5.35;4.00;;;;;;;18.70;41.58;100967.69;5063438;28;20140;-69
2022/06/01 01:03:02;;;;;;;4.53;3.80;;;;;;;18.67;41.95;100959.78;5067008;28;20075;-68
2022/06/01 01:05:32;;;;;;;6.20;4.25;;;;;;;18.65;41.90;100959.03;5061960;28;20048;-68
2022/06/01 01:08:03;;;;;;;5.00;3.92;;;;;;;18.66;41.88;100969.03;5064078;28;20102;-68
2022/06/01 01:10:31;;;;;;;5.55;4.10;;;;;;;18.60;42.02;100960.38;5060404;28;20478;-69
2022/06/01 01:13:04;;;;;;;6.22;4.05;;;;;;;18.59;41.77;100966.91;5062270;28;20166;-68
2022/06/01 01:15:38;;;;;;;5.38;3.80;;;;;;;18.59;42.50;100964.16;5068138;28;20045;-68
2022/06/01 01:18:09;;;;;;;4.60;3.65;;;;;;;18.55;42.12;100965.41;5066723;28;20045;-72
2022/06/01 01:21:02;;;;;;;4.80;3.90;;;;;;;18.53;42.71;100958.34;5069373;28;20419;-69
2022/06/01 01:24:07;;;;;;;5.55;3.75;;;;;;;18.49;43.12;100956.91;5062085;28;20080;-68
2022/06/01 01:26:34;;;;;;;4.70;3.63;;;;;;;18.46;41.69;100946.22;5065375;28;20318;-68
2022/06/01 01:29:09;;;;;;;5.28;3.90;;;;;;;18.48;42.18;100938.69;5063168;28;20053;-69
2022/06/01 01:31:38;;;;;;;5.00;3.70;;;;;;;18.43;41.64;100941.91;5062080;28;20049;-69
2022/06/01 01:34:07;;;;;;;5.40;3.90;;;;;;;18.41;41.83;100937.56;5067310;28;20531;-69
2022/06/01 01:36:50;;;;;;;4.93;3.67;;;;;;;18.40;42.31;100942.19;5062800;28;20053;-68
2022/06/01 01:39:17;;;;;;;5.05;3.80;;;;;;;18.35;42.13;100946.41;5061812;28;20087;-69
2022/06/01 01:41:49;;;;;;;5.55;3.67;;;;;;;18.36;42.01;100948.16;5063701;28;20172;-69
2022/06/01 01:44:28;;;;;;;4.72;3.78;;;;;;;18.34;42.62;100952.94;5047854;28;20072;-68
2022/06/01 01:46:56;;;;;;;5.10;3.63;;;;;;;18.29;42.08;100944.25;5063274;28;20083;-69
2022/06/01 01:49:26;;;;;;;4.57;3.42;;;;;;;18.28;42.00;100939.78;5067113;28;20076;-68
2022/06/01 01:51:58;;;;;;;5.10;3.70;;;;;;;18.25;41.95;100944.56;5066296;28;20144;-69
2022/06/01 01:54:51;;;;;;;4.72;3.65;;;;;;;18.22;42.35;100938.50;5055129;28;20060;-68
2022/06/01 01:57:38;;;;;;;5.25;3.65;;;;;;;18.15;42.35;100943.72;5068144;28;20056;-69
2022/06/01 02:00:08;;;;;;;5.10;3.55;;;;;;;18.16;41.91;100939.09;5063874;28;20489;-69
2022/06/01 02:03:06;;;;;;;4.72;3.83;;;;;;;18.14;42.53;100938.38;5064699;28;20521;-69
2022/06/01 02:06:08;;;;;;;4.80;3.63;;;;;;;18.08;42.10;100928.84;5068078;28;20780;-68
2022/06/01 02:08:46;;;;;;;4.50;3.60;;;;;;;18.05;42.49;100931.00;5064813;28;20080;-69
2022/06/01 02:14:22;;;;;;;4.70;3.50;;;;;;;17.99;42.57;100928.88;5067367;28;20485;-69
2022/06/01 02:17:13;;;;;;;4.78;3.80;;;;;;;17.93;42.73;100924.84;5064030;28;20044;-68
2022/06/01 02:19:50;;;;;;;5.78;3.92;;;;;;;17.93;42.43;100933.09;5066866;28;20131;-69
2022/06/01 02:22:16;;;;;;;5.47;3.85;;;;;;;17.90;42.14;100935.25;5067249;28;20714;-68
2022/06/01 02:24:44;;;;;;;4.07;3.45;;;;;;;17.88;42.26;100941.75;5063154;28;20080;-68
2022/06/01 02:27:14;;;;;;;4.47;3.88;;;;;;;17.87;42.34;100940.00;5062654;28;20127;-68
2022/06/01 02:29:46;;;;;;;5.20;3.97;;;;;;;17.87;42.47;100939.19;5063036;28;20215;-68
2022/06/01 02:32:13;;;;;;;4.95;3.70;;;;;;;17.82;42.44;100941.47;5062417;28;20094;-68
2022/06/01 02:34:43;;;;;;;5.57;3.85;;;;;;;17.84;42.58;100944.97;5037004;28;20136;-68
2022/06/01 02:37:14;;;;;;;5.18;4.13;;;;;;;17.82;42.04;100945.09;5066842;28;20091;-69
2022/06/01 02:39:45;;;;;;;4.85;3.75;;;;;;;17.81;42.61;100954.34;5059063;28;20573;-69
2022/06/01 02:42:25;;;;;;;6.28;4.35;;;;;;;17.80;42.57;100949.00;5059241;28;20132;-69
2022/06/01 02:45:06;;;;;;;5.65;4.25;;;;;;;17.79;42.91;100953.63;5067996;28;20459;-68
2022/06/01 02:47:39;;;;;;;5.50;3.88;;;;;;;17.77;43.06;100954.81;5065481;28;20576;-68
2022/06/01 02:50:09;;;;;;;5.30;3.95;;;;;;;17.74;42.66;100960.56;5058498;28;20127;-68
2022/06/01 02:52:36;;;;;;;5.30;3.75;;;;;;;17.72;42.31;100960.72;5057049;28;20044;-68
2022/06/01 02:55:05;;;;;;;5.88;3.80;;;;;;;17.72;42.49;100962.59;5062981;28;20494;-69
2022/06/01 02:57:33;;;;;;;5.40;4.53;;;;;;;17.71;42.32;100958.09;5060237;28;20609;-68
2022/06/01 03:00:00;;;;;;;5.40;3.78;;;;;;;17.68;42.29;100962.03;5066332;28;20095;-69
2022/06/01 03:02:26;;;;;;;7.57;4.40;;;;;;;17.67;42.39;100967.66;5059292;28;20694;-68
2022/06/01 03:04:52;;;;;;;5.80;4.05;;;;;;;17.65;42.57;100965.06;5064441;28;20080;-68
2022/06/01 03:07:19;;;;;;;5.05;3.90;;;;;;;17.64;42.53;100960.56;5065725;28;20507;-68
2022/06/01 03:09:46;;;;;;;5.18;4.03;;;;;;;17.63;42.62;100964.31;5067573;28;20131;-68
2022/06/01 03:12:12;;;;;;;4.82;3.75;;;;;;;17.62;42.50;100962.63;5059609;28;20501;-69
2022/06/01 03:14:39;;;;;;;6.70;3.88;;;;;;;17.60;42.38;100963.75;5064185;28;20127;-68
2022/06/01 03:17:06;;;;;;;4.82;3.70;;;;;;;17.60;42.36;100972.84;5062018;28;20080;-68
2022/06/01 03:19:34;;;;;;;5.63;3.88;;;;;;;17.60;42.80;100974.72;5058917;28;20047;-68
2022/06/01 03:22:01;;;;;;;6.35;4.22;;;;;;;17.59;42.73;100979.34;5066863;28;20127;-68
2022/06/01 03:24:28;;;;;;;6.75;4.20;;;;;;;17.57;42.74;100973.13;5067123;28;20459;-68
2022/06/01 03:26:57;;;;;;;5.32;3.67;;;;;;;17.58;42.59;100983.09;5067280;28;20098;-68
2022/06/01 03:29:27;;;;;;;6.07;3.90;;;;;;;17.59;42.57;100981.22;5062489;28;20072;-68
2022/06/01 03:31:54;;;;;;;6.03;4.00;;;;;;;17.60;42.92;100985.69;5066888;28;20045;-68
2022/06/01 03:34:22;;;;;;;5.05;3.42;;;;;;;17.59;42.59;100981.22;5060156;28;20055;-68
2022/06/01 03:36:49;;;;;;;5.63;3.83;;;;;;;17.59;42.52;100987.56;5064685;28;20095;-68
2022/06/01 03:39:15;;;;;;;6.30;4.03;;;;;;;17.59;42.77;100982.09;5050357;28;20039;-68
2022/06/01 03:41:42;;;;;;;4.72;3.40;;;;;;;17.60;42.81;100983.81;5056288;28;20137;-68
2022/06/01 03:47:03;;;;;;;5.93;3.75;;;;;;;17.61;43.39;100982.81;5062745;28;20223;-68
2022/06/01 03:49:32;;;;;;;5.28;3.72;;;;;;;17.59;42.78;100982.09;5063892;28;20040;-68
2022/06/01 03:51:58;;;;;;;5.07;3.30;;;;;;;17.59;42.44;100990.31;5066615;28;20470;-68
2022/06/01 03:54:25;;;;;;;4.80;3.50;;;;;;;17.60;42.60;100996.69;5066141;28;20091;-69
2022/06/01 03:56:51;;;;;;;5.68;3.40;;;;;;;17.60;42.41;100996.69;5059131;28;20664;-68
2022/06/01 03:59:18;;;;;;;4.88;3.25;;;;;;;17.59;42.80;100995.81;5066473;28;20099;-68
2022/06/01 04:01:44;;;;;;;4.82;3.17;;;;;;;17.60;42.57;100997.56;5066987;28;20442;-68
2022/06/01 04:04:11;;;;;;;5.15;3.20;;;;;;;17.60;42.94;100997.56;5053337;28;20080;-68
2022/06/01 04:06:38;;;;;;;4.35;3.22;;;;;;;17.60;42.67;100994.81;5060536;28;20524;-68
2022/06/01 04:09:04;;;;;;;4.95;3.33;;;;;;;17.60;42.58;100989.31;5064986;28;20044;-68
2022/06/01 04:11:31;;;;;;;4.65;2.97;;;;;;;17.62;42.77;101002.94;5068152;28;20482;-68
2022/06/01 04:13:57;;;;;;;5.90;3.42;;;;;;;17.60;42.58;101003.03;5056685;28;20040;-68
2022/06/01 04:16:24;;;;;;;4.75;3.17;;;;;;;17.62;42.74;100997.44;5065855;28;20131;-68
2022/06/01 04:18:51;;;;;;;5.05;3.05;;;;;;;17.61;42.88;101002.03;5069941;28;20120;-68
2022/06/01 04:21:23;;;;;;;5.72;2.97;;;;;;;17.64;43.12;101007.25;5069255;28;20151;-68
2022/06/01 04:23:50;;;;;;;;;;;;;;;17.36;43.29;101006.22;5059893;28;20714;-68
2022/06/01 04:26:17;;;;;;;5.57;3.00;;;;;;;17.57;42.35;101006.06;5057857;28;20015;-68
2022/06/01 04:28:44;;;;;;;4.55;3.03;;;;;;;17.63;42.58;101013.75;5057607;28;20101;-68
2022/06/01 04:31:11;;;;;;;4.75;3.05;;;;;;;17.62;42.36;101009.31;5073751;28;20059;-68
2022/06/01 04:33:41;;;;;;;6.18;3.20;;;;;;;17.65;42.87;101011.75;5063342;28;20049;-68
2022/06/01 04:36:08;;;;;;;4.40;3.03;;;;;;;17.62;42.39;101011.19;5054971;28;20072;-68
2022/06/01 04:38:34;;;;;;;5.10;3.08;;;;;;;17.63;42.79;101012.88;5067515;28;20047;-68
2022/06/01 04:41:01;;;;;;;4.70;3.25;;;;;;;17.63;42.67;101010.13;5069958;28;20140;-68
2022/06/01 04:43:27;;;;;;;4.35;3.10;;;;;;;17.63;42.63;101016.50;5070360;28;20654;-68
2022/06/01 04:45:55;;;;;;;4.38;3.17;;;;;;;17.64;42.73;101010.00;5067992;28;20142;-68
2022/06/01 04:48:23;;;;;;;5.18;3.08;;;;;;;17.65;42.72;101006.25;5068991;28;20052;-68
2022/06/01 04:50:51;;;;;;;5.00;2.88;;;;;;;17.65;42.79;101003.50;5067578;28;20139;-69
2022/06/01 04:53:18;;;;;;;5.00;3.10;;;;;;;17.65;42.84;101008.13;5056918;28;20711;-68
2022/06/01 04:55:46;;;;;;;4.57;3.30;;;;;;;17.67;42.92;101011.59;5070957;28;20048;-69
2022/06/01 04:58:13;;;;;;;4.97;3.13;;;;;;;17.66;42.65;101010.72;5058411;28;20072;-68
2022/06/01 05:00:41;;;;;;;5.72;3.17;;;;;;;17.69;42.98;101012.34;5064604;28;20076;-68
2022/06/01 05:03:08;;;;;;;5.15;3.60;;;;;;;17.68;43.08;101008.72;5061156;28;20647;-68
2022/06/01 05:05:37;;;;;;;5.15;3.28;;;;;;;17.70;43.16;101006.69;5064901;28;20505;-68
2022/06/01 05:08:10;;;;;;;3.95;3.05;;;;;;;17.73;42.90;101003.66;5042741;28;20041;-68
2022/06/01 05:10:37;;;;;;;5.18;3.05;;;;;;;17.78;43.25;101003.22;5060963;28;20072;-68
2022/06/01 05:13:06;;;;;;;6.28;3.33;;;;;;;17.86;43.54;100995.13;5037558;28;20541;-67
2022/06/01 05:15:33;;;;;;;4.80;3.28;;;;;;;17.91;43.45;100998.28;5058321;28;20048;-68
2022/06/01 05:17:59;;;;;;;4.45;3.03;;;;;;;17.98;43.34;101004.94;5060515;28;20374;-68
2022/06/01 05:20:26;;;;;;;4.45;3.13;;;;;;;18.07;43.31;101006.78;5067933;28;20049;-68
2022/06/01 05:22:52;;;;;;;4.82;3.30;;;;;;;18.18;43.24;101012.13;5075565;28;20078;-68
2022/06/01 05:25:21;;;;;;;5.35;3.40;;;;;;;18.28;43.16;101006.63;5068232;28;20048;-68
2022/06/01 05:27:48;;;;;;;5.32;3.40;;;;;;;18.39;43.17;101011.94;5064408;28;20044;-67
2022/06/01 05:30:15;;;;;;;4.63;3.15;;;;;;;18.49;43.02;101010.03;5066462;28;20135;-69
2022/06/01 05:32:41;;;;;;;4.82;3.08;;;;;;;18.60;42.69;101011.75;5070882;28;20488;-70
2022/06/01 05:35:09;;;;;;;7.68;3.30;;;;;;;18.70;42.84;101014.44;5060152;28;20551;-68
2022/06/01 05:37:35;;;;;;;4.18;3.17;;;;;;;18.78;42.71;101007.19;5068556;28;20136;-67
2022/06/01 05:40:03;;;;;;;4.40;2.80;;;;;;;18.87;42.72;101009.03;5058975;28;20087;-62
2022/06/01 05:42:30;;;;;;;4.85;2.90;;;;;;;18.96;42.60;101008.09;5049730;28;20091;-62
2022/06/01 05:44:56;;;;;;;4.03;2.75;;;;;;;19.07;42.46;101018.06;5049988;28;20098;-61
2022/06/01 05:47:23;;;;;;;4.03;2.78;;;;;;;19.18;42.44;101017.84;5049472;28;20144;-62
2022/06/01 05:49:49;;;;;;;3.75;2.75;;;;;;;19.30;42.29;101021.25;5050517;28;20059;-62
2022/06/01 05:52:18;;;;;;;4.82;3.08;;;;;;;19.40;42.26;101019.31;5058418;28;20155;-63
2022/06/01 05:54:46;;;;;;;4.00;2.72;;;;;;;19.54;42.34;101023.44;5049902;28;20051;-61
2022/06/01 05:57:13;;;;;;;5.07;3.47;;;;;;;19.64;42.44;101024.22;5049247;28;20049;-60
2022/06/01 05:59:39;;;;;;;4.53;2.60;;;;;;;19.76;41.82;101021.06;5050536;28;20084;-61
2022/06/01 06:02:07;;;;;;;5.10;2.78;;;;;;;19.90;41.92;101024.31;5056075;28;20083;-68
2022/06/01 06:04:34;;;;;;;4.25;3.03;;;;;;;20.01;41.41;101032.34;5067623;28;20127;-70
2022/06/01 06:07:01;;;;;;;5.43;3.20;;;;;;;20.13;41.42;101031.91;5061388;28;20139;-71
2022/06/01 06:09:28;;;;;;;4.03;2.70;;;;;;;20.26;41.72;101030.66;5058497;28;20044;-70
2022/06/01 06:11:55;;;;;;;4.55;2.75;;;;;;;20.37;41.06;101031.25;5065524;28;20050;-70
2022/06/01 06:14:22;;;;;;;4.07;2.38;;;;;;;20.50;40.89;101039.13;5058694;28;20445;-70
2022/06/01 06:16:49;;;;;;;5.10;2.50;;;;;;;20.60;40.91;101039.84;5063051;28;20051;-70
2022/06/01 06:19:17;;;;;;;4.68;2.92;;;;;;;20.71;40.79;101033.22;5068411;28;20136;-70
2022/06/01 06:21:45;;;;;;;5.13;2.83;;;;;;;20.79;40.23;101039.63;5055640;28;20082;-70
2022/06/01 06:24:13;;;;;;;4.15;2.85;;;;;;;20.89;39.95;101045.03;5061031;28;20044;-70
2022/06/01 06:26:42;;;;;;;5.40;2.83;;;;;;;20.96;39.73;101048.00;5062363;28;20080;-70
2022/06/01 06:29:11;;;;;;;4.00;2.75;;;;;;;21.02;39.70;101050.97;5066289;28;20048;-69
2022/06/01 06:31:38;;;;;;;4.95;2.70;;;;;;;21.08;39.84;101046.69;5059321;28;20556;-69
2022/06/01 06:34:12;;;;;;;4.32;2.80;;;;;;;21.13;39.69;101047.91;5068467;28;20044;-70
2022/06/01 06:36:38;;;;;;;4.20;2.65;;;;;;;21.21;39.91;101045.22;5068930;28;20079;-70
2022/06/01 06:39:05;;;;;;;7.47;3.28;;;;;;;21.28;39.57;101053.69;5046428;28;20128;-69
2022/06/01 06:41:31;;;;;;;5.72;3.47;;;;;;;21.36;39.34;101052.84;5063666;28;20478;-69
2022/06/01 06:43:58;;;;;;;5.35;2.60;;;;;;;21.43;39.79;101048.38;5066577;28;20079;-69
2022/06/01 06:46:25;;;;;;;5.07;3.17;;;;;;;21.50;39.38;101047.53;5069481;28;20055;-69
2022/06/01 06:48:52;;;;;;;4.97;2.67;;;;;;;21.58;39.32;101047.56;5061239;28;20045;-69
2022/06/01 06:51:20;;;;;;;4.25;2.65;;;;;;;21.70;39.44;101047.25;5063923;28;20131;-70
2022/06/01 06:53:47;;;;;;;5.45;2.70;;;;;;;21.77;39.00;101035.34;5064560;28;20076;-68
2022/06/01 06:56:16;;;;;;;4.88;2.78;;;;;;;21.87;38.65;101038.81;5068742;28;20072;-69
2022/06/01 06:58:43;;;;;;;5.47;2.33;;;;;;;21.96;39.11;101034.16;5067870;28;20060;-68
2022/06/01 07:01:10;;;;;;;4.72;2.13;;;;;;;22.08;39.00;101043.00;5066146;28;20139;-71
2022/06/01 07:03:36;;;;;;;3.63;2.20;;;;;;;22.18;38.51;101047.34;5062611;28;20124;-70
2022/06/01 07:06:09;;;;;;;4.55;2.20;;;;;;;22.28;38.78;101039.72;5063453;28;20508;-70
2022/06/01 07:08:36;;;;;;;3.08;1.80;;;;;;;22.40;38.61;101045.78;5064229;28;20040;-69
2022/06/01 07:11:03;;;;;;;4.07;2.10;;;;;;;22.49;37.94;101047.47;5056351;28;20486;-71
2022/06/01 07:13:29;;;;;;;3.67;2.10;;;;;;;22.58;37.98;101045.56;5060115;28;20080;-69
2022/06/01 07:16:12;;;;;;;3.65;2.35;;;;;;;22.66;36.93;101040.00;5048020;28;20044;-67
2022/06/01 07:18:42;;;;;;;3.70;2.00;;;;;;;22.71;37.55;101051.44;5062867;28;20098;-69
2022/06/01 07:21:11;;;;;;;3.30;1.77;;;;;;;22.75;37.31;101052.81;5067325;28;20048;-70
2022/06/01 07:23:40;;;;;;;3.00;1.60;;;;;;;22.79;36.86;101059.75;5060454;28;20056;-70
2022/06/01 07:26:10;;;;;;;3.33;1.98;;;;;;;22.84;37.08;101061.97;5068059;28;20425;-70
2022/06/01 07:28:37;;;;;;;2.55;1.45;;;;;;;22.87;36.65;101061.63;5067630;28;20048;-70
2022/06/01 07:31:04;;;;;;;4.15;1.60;;;;;;;22.89;36.77;101068.72;5068631;28;20079;-70
2022/06/01 07:33:31;;;;;;;4.13;1.80;;;;;;;22.93;36.38;101063.69;5067245;28;20538;-70
2022/06/01 07:36:01;;;;;;;3.22;1.77;;;;;;;22.98;36.77;101067.63;5068424;28;20409;-69
2022/06/01 07:44:06;;;;;;;3.05;1.77;;;;;;;23.15;36.74;101066.53;5067352;28;20055;-70
2022/06/01 07:46:35;;;;;;;3.35;1.75;;;;;;;23.22;36.04;101071.38;5062094;28;20135;-70
2022/06/01 07:49:02;;;;;;;4.32;2.10;;;;;;;23.25;35.81;101066.34;5067113;28;20045;-70
2022/06/01 07:51:49;;;;;;;3.05;1.90;;;;;;;23.28;35.91;101062.34;5064811;28;20049;-70
2022/06/01 07:54:16;;;;;;;5.18;2.00;;;;;;;23.35;35.85;101063.34;5067503;28;20127;-70
2022/06/01 07:56:43;;;;;;;3.50;1.73;;;;;;;23.39;35.14;101071.09;5063805;28;20135;-70
2022/06/01 07:59:10;;;;;;;4.20;1.92;;;;;;;23.44;35.12;101074.22;5067337;28;20151;-70
2022/06/01 08:01:38;;;;;;;3.92;1.70;;;;;;;23.47;34.74;101071.06;5068061;28;20056;-70
2022/06/01 08:04:07;;;;;;;4.00;1.70;;;;;;;23.53;35.20;101077.84;5067494;28;20055;-70
2022/06/01 08:06:36;;;;;;;3.25;1.85;;;;;;;23.58;35.07;101075.38;5068255;28;20045;-70
2022/06/01 08:09:21;;;;;;;2.75;1.63;;;;;;;23.60;35.23;101073.31;5067241;28;20068;-70
2022/06/01 08:14:36;;;;;;;3.97;2.00;;;;;;;23.71;35.20;101075.69;5067887;28;20117;-70
2022/06/01 08:17:03;;;;;;;3.42;1.67;;;;;;;23.77;34.67;101083.25;5068557;28;20408;-70
2022/06/01 08:19:29;;;;;;;2.80;1.70;;;;;;;23.80;34.50;101080.09;5067038;28;20124;-70
2022/06/01 08:21:56;;;;;;;2.10;1.42;;;;;;;23.86;33.93;101070.19;5068375;28;20391;-70
2022/06/01 08:24:22;;;;;;;3.28;1.60;;;;;;;23.88;33.50;101081.97;5066787;28;20141;-70
2022/06/01 08:26:50;;;;;;;4.72;1.60;;;;;;;23.88;33.76;101091.13;5067993;28;20091;-70
2022/06/01 08:29:17;;;;;;;2.20;1.40;;;;;;;23.88;33.75;101082.81;5067109;28;20513;-70
2022/06/01 08:31:43;;;;;;;2.70;1.52;;;;;;;23.90;33.67;101088.19;5067718;28;20131;-70
2022/06/01 08:34:15;;;;;;;3.03;1.60;;;;;;;23.90;33.33;101085.41;5058418;28;20504;-71
2022/06/01 08:36:42;;;;;;;3.65;1.80;;;;;;;23.89;33.48;101084.53;5067654;28;20056;-70
2022/06/01 08:39:08;;;;;;;4.25;1.90;;;;;;;23.88;33.05;101093.91;5066944;28;20131;-70
2022/06/01 08:41:37;;;;;;;2.92;1.60;;;;;;;23.89;33.48;101089.22;5068080;28;20460;-70
2022/06/01 08:44:24;;;;;;;3.13;1.60;;;;;;;23.87;32.65;101094.97;5066855;28;20485;-70
2022/06/01 08:46:56;;;;;;;2.80;1.48;;;;;;;23.86;32.58;101101.56;5068121;28;20481;-70
2022/06/01 08:49:27;;;;;;;4.63;1.60;;;;;;;23.83;33.34;101095.50;5066934;28;20075;-70
2022/06/01 08:51:53;;;;;;;3.17;1.40;;;;;;;23.82;33.18;101102.09;5068310;28;20555;-70
2022/06/01 08:54:21;;;;;;;4.15;1.77;;;;;;;23.83;33.45;101099.16;5066698;28;20605;-70
2022/06/01 08:56:50;;;;;;;3.33;1.88;;;;;;;23.83;33.13;101098.28;5068247;28;20359;-70
2022/06/01 08:59:35;;;;;;;3.05;1.40;;;;;;;23.81;33.42;101105.91;5069217;28;20083;-70
2022/06/01 09:02:52;;;;;;;3.65;1.67;;;;;;;23.74;32.94;101091.94;5070573;28;20152;-70
2022/06/01 09:05:41;;;;;;;3.22;1.40;;;;;;;23.80;32.92;101095.91;5071016;28;20521;-70
2022/06/01 09:08:26;;;;;;;2.50;1.35;;;;;;;23.84;33.41;101094.47;5070176;28;20098;-70
2022/06/01 09:11:04;;;;;;;4.35;1.60;;;;;;;23.86;32.72;101093.25;5067197;28;20051;-70
2022/06/01 09:13:40;;;;;;;3.60;1.65;;;;;;;23.90;33.18;101102.06;5065094;28;20479;-70
2022/06/01 09:16:22;;;;;;;3.60;1.73;;;;;;;23.93;32.96;101096.16;5071660;28;20053;-70
2022/06/01 09:18:51;;;;;;;3.43;1.50;;;;;;;23.95;33.38;101101.53;5069763;28;20318;-70
2022/06/01 09:24:22;;;;;;;3.30;1.48;;;;;;;24.04;32.47;101101.28;5069905;28;20456;-70
2022/06/01 09:27:10;;;;;;;2.58;1.40;;;;;;;24.10;32.24;101103.31;5070623;28;20071;-70
2022/06/01 09:29:49;;;;;;;3.22;1.33;;;;;;;24.13;32.23;101091.81;5069790;28;20478;-70
2022/06/01 09:32:28;;;;;;;3.60;1.70;;;;;;;24.15;32.11;101091.66;5069648;28;20133;-70
2022/06/01 09:35:03;;;;;;;4.00;1.45;;;;;;;24.16;32.00;101083.16;5070580;28;20072;-69
2022/06/01 09:37:36;;;;;;;2.90;1.45;;;;;;;24.19;31.60;101088.34;5069854;28;20445;-70
2022/06/01 09:40:18;;;;;;;3.63;1.50;;;;;;;24.21;32.09;101079.88;5070898;28;20084;-70
2022/06/01 09:42:48;;;;;;;2.33;1.23;;;;;;;24.23;31.82;101086.06;5069761;28;20066;-70
2022/06/01 09:45:24;;;;;;;3.53;1.50;;;;;;;24.29;30.97;101082.56;5062431;28;20309;-70
2022/06/01 09:47:53;;;;;;;3.03;1.50;;;;;;;24.31;31.74;101077.69;5067974;28;20052;-70
2022/06/01 09:50:22;;;;;;;2.78;1.33;;;;;;;24.35;31.69;101086.50;5062837;28;20143;-70
2022/06/01 09:52:50;;;;;;;3.03;1.50;;;;;;;24.38;31.34;101086.97;5069377;28;20136;-71
2022/06/01 09:55:24;;;;;;;2.78;1.40;;;;;;;24.46;31.08;101081.34;5070445;28;20135;-71
2022/06/01 09:58:05;;;;;;;2.10;1.20;;;;;;;24.51;30.77;101075.25;5068820;28;20050;-70
2022/06/01 10:06:30;;;;;;;3.38;1.40;;;;;;;24.64;30.36;101069.91;5063355;28;20090;-69
2022/06/01 10:09:14;;;;;;;2.58;1.40;;;;;;;24.69;30.17;101086.03;5066610;28;20505;-69
2022/06/01 10:11:46;;;;;;;2.80;1.60;;;;;;;24.76;30.77;101082.31;5065551;28;20135;-69
2022/06/01 10:14:20;;;;;;;1.93;1.40;;;;;;;24.81;30.12;101077.03;5069373;28;20501;-70
2022/06/01 10:16:58;;;;;;;2.85;1.40;;;;;;;24.90;30.12;101077.81;5066889;28;20439;-70
2022/06/01 10:19:31;;;;;;;3.80;1.50;;;;;;;24.94;29.91;101081.97;5069489;28;20055;-70
2022/06/01 10:22:04;;;;;;;3.60;1.60;;;;;;;24.97;29.97;101084.34;5070481;28;20477;-70
2022/06/01 10:24:37;;;;;;;2.60;1.30;;;;;;;25.00;29.98;101081.19;5068765;28;20761;-70
2022/06/01 10:27:05;;;;;;;2.60;1.30;;;;;;;25.05;29.81;101081.47;5069401;28;20477;-70
2022/06/01 10:29:43;;;;;;;2.05;1.38;;;;;;;25.11;28.86;101086.31;5069390;28;20048;-69
2022/06/01 10:32:23;;;;;;;2.78;1.50;;;;;;;25.14;29.21;101080.34;5069219;28;20749;-70
2022/06/01 10:35:11;;;;;;;2.97;1.20;;;;;;;25.16;29.34;101077.38;5066673;28;20519;-69
2022/06/01 10:37:55;;;;;;;3.55;1.30;;;;;;;25.22;29.02;101085.78;5068481;28;20128;-70
2022/06/01 10:40:40;;;;;;;2.40;1.30;;;;;;;25.26;28.93;101080.72;5069124;28;20087;-69
2022/06/01 10:43:50;;;;;;;3.20;1.27;;;;;;;25.22;28.46;101087.72;5068529;28;20136;-70
2022/06/01 10:46:31;;;;;;;3.70;1.38;;;;;;;25.32;28.98;101080.81;5010494;28;20080;-69
2022/06/01 10:49:15;;;;;;;2.42;1.30;;;;;;;25.37;28.38;101083.88;5068617;28;20052;-69
2022/06/01 10:51:43;;;;;;;1.77;1.30;;;;;;;25.41;29.14;101073.22;5069358;28;20127;-70
2022/06/01 10:54:20;;;;;;;1.67;1.02;;;;;;;25.47;28.09;101075.22;5068046;28;20123;-70
2022/06/01 10:56:47;;;;;;;2.15;1.17;;;;;;;25.49;28.31;101092.59;5068412;28;20140;-69
2022/06/01 10:59:16;;;;;;;2.75;1.35;;;;;;;25.54;28.01;101078.94;5067661;28;20080;-70
2022/06/01 11:02:11;;;;;;;1.70;1.00;;;;;;;25.55;27.53;101077.03;5064618;28;20139;-68
2022/06/01 11:05:16;;;;;;;1.85;1.23;;;;;;;25.55;27.33;101085.38;5068566;28;20148;-64
2022/06/01 11:08:04;;;;;;;2.30;1.20;;;;;;;25.58;27.39;101079.44;5040967;28;20090;-63
2022/06/01 11:10:57;;;;;;;1.92;1.10;;;;;;;25.53;27.63;101079.16;5068983;28;20135;-65
2022/06/01 11:13:52;;;;;;;3.05;1.15;;;;;;;25.57;27.42;101072.16;5067697;28;20349;-64
2022/06/01 11:16:20;;;;;;;3.67;1.35;;;;;;;25.54;27.39;101081.72;5067797;28;20139;-65
2022/06/01 11:19:17;;;;;;;2.63;1.10;;;;;;;25.60;26.86;101077.38;5067282;28;20048;-64
2022/06/01 11:22:14;;;;;;;1.67;1.00;;;;;;;25.58;27.20;101073.88;5066454;28;20052;-63
2022/06/01 11:25:13;;;;;;;2.42;1.20;;;;;;;25.53;26.99;101082.78;5067131;28;20131;-64
2022/06/01 11:27:42;;;;;;;1.27;0.85;;;;;;;25.58;26.90;101085.00;5029833;28;20131;-65
2022/06/01 11:30:18;;;;;;;2.85;1.38;;;;;;;25.67;26.45;101086.66;5068224;28;20127;-64
2022/06/01 11:32:51;;;;;;;2.38;1.00;;;;;;;25.68;26.59;101078.13;5067031;28;20111;-64
2022/06/01 11:35:33;;;;;;;1.60;1.00;;;;;;;25.69;26.92;101077.06;5067894;28;20070;-62
2022/06/01 11:38:04;;;;;;;1.17;0.93;;;;;;;25.67;26.97;101089.44;5064554;28;20098;-63
2022/06/01 11:40:45;;;;;;;2.72;1.10;;;;;;;25.73;26.34;101081.16;5062398;28;20044;-62
2022/06/01 11:43:18;;;;;;;1.73;1.00;;;;;;;25.72;26.67;101079.44;5067338;28;20079;-64
2022/06/01 11:45:52;;;;;;;2.22;1.30;;;;;;;25.77;26.19;101078.88;5066602;28;20420;-67
2022/06/01 11:48:30;;;;;;;2.20;1.10;;;;;;;25.82;25.30;101081.91;5067663;28;20051;-67
2022/06/01 11:51:02;;;;;;;2.75;1.00;;;;;;;25.82;26.43;101078.25;5066326;28;20167;-67
2022/06/01 11:54:01;;;;;;;1.95;0.90;;;;;;;25.83;25.68;101074.44;5056010;28;20103;-67
2022/06/01 11:56:54;;;;;;;1.77;1.10;;;;;;;25.86;25.84;101074.03;5024420;28;20102;-67
2022/06/01 11:59:27;;;;;;;2.22;1.15;;;;;;;25.90;25.58;101075.34;5045474;28;20428;-68
2022/06/01 12:02:12;;;;;;;;;;;;;;;25.61;27.03;101079.09;5065814;28;20044;-67
2022/06/01 12:04:38;;;;;;;1.80;0.90;;;;;;;25.83;26.36;101085.56;5062996;28;19978;-67
2022/06/01 12:07:21;;;;;;;1.83;1.08;;;;;;;25.90;25.83;101072.56;5057262;28;20049;-67
2022/06/01 12:10:03;;;;;;;2.30;1.20;;;;;;;25.87;25.13;101072.94;5053189;28;20064;-67
2022/06/01 12:12:33;;;;;;;2.38;1.08;;;;;;;25.82;25.54;101073.56;5067223;28;20064;-67